Tucumcari, New Mexico
Current Conditions -  °F | °C
As of 7:53 PM on Monday 22 Dec 2014 (Local Time) from KTCC Reporting Station
Broken Clouds Broken Clouds  
Wind Chill: 33°   Ceiling: 7000
Heat Index: 33°   Visibility: 10mi
Dew Point: 32°   Wind: 3mph
Humidity: 96%   Direction: 200°SSW
Pressure: 29.76"   Gusts: NA
Location:  35.18°N, 103.72°W
Report Text: KTCC 230253Z AUTO 20003KT 10SM FEW004 SCT055 BKN070 01/00 A2976 RMK AO2 SNE0156B15E44 SLP079 P0000 60006 T00060000 50009
Loading
Personal Weather Stations






























Interactive Weather Map New forecast layout! Learn more

10-Day Weather Forecast

Advertisements
Track Severe Weather on mobile